sensor_id;sensor_type;location;lat;lon;timestamp;temperature;humidity
11043;DHT22;5574;48.786;10.120;2022-09-01T00:02:06;17.00;99.90
11043;DHT22;5574;48.786;10.120;2022-09-01T00:04:35;17.10;99.90
11043;DHT22;5574;48.786;10.120;2022-09-01T00:07:03;17.00;99.90
11043;DHT22;5574;48.786;10.120;2022-09-01T00:09:32;17.00;99.90
11043;DHT22;5574;48.786;10.120;2022-09-01T00:11:59;17.00;99.90
11043;DHT22;5574;48.786;10.120;2022-09-01T00:14:28;17.00;99.90
11043;DHT22;5574;48.786;10.120;2022-09-01T00:16:56;17.00;99.90
11043;DHT22;5574;48.786;10.120;2022-09-01T00:19:23;17.00;99.90
11043;DHT22;5574;48.786;10.120;2022-09-01T00:21:50;17.00;99.90
11043;DHT22;5574;48.786;10.120;2022-09-01T00:24:18;17.00;99.90
11043;DHT22;5574;48.786;10.120;2022-09-01T00:26:47;17.00;99.90
11043;DHT22;5574;48.786;10.120;2022-09-01T00:29:14;17.00;99.90
11043;DHT22;5574;48.786;10.120;2022-09-01T00:31:41;17.10;99.90
11043;DHT22;5574;48.786;10.120;2022-09-01T00:34:08;17.00;99.90
11043;DHT22;5574;48.786;10.120;2022-09-01T00:36:34;17.00;99.90
11043;DHT22;5574;48.786;10.120;2022-09-01T00:39:03;16.80;99.90
11043;DHT22;5574;48.786;10.120;2022-09-01T00:41:32;16.80;99.90
11043;DHT22;5574;48.786;10.120;2022-09-01T00:44:02;16.80;99.90
11043;DHT22;5574;48.786;10.120;2022-09-01T00:46:33;16.80;99.90
11043;DHT22;5574;48.786;10.120;2022-09-01T00:49:02;16.80;99.90
11043;DHT22;5574;48.786;10.120;2022-09-01T00:51:30;16.70;99.90
11043;DHT22;5574;48.786;10.120;2022-09-01T00:53:57;16.70;99.90
11043;DHT22;5574;48.786;10.120;2022-09-01T00:56:26;16.80;99.90
11043;DHT22;5574;48.786;10.120;2022-09-01T00:58:53;16.80;99.90
11043;DHT22;5574;48.786;10.120;2022-09-01T01:01:21;16.80;99.90
11043;DHT22;5574;48.786;10.120;2022-09-01T01:03:48;16.90;99.90
11043;DHT22;5574;48.786;10.120;2022-09-01T01:06:15;16.90;99.90
11043;DHT22;5574;48.786;10.120;2022-09-01T01:08:46;16.90;99.90
11043;DHT22;5574;48.786;10.120;2022-09-01T01:11:24;16.90;99.90
11043;DHT22;5574;48.786;10.120;2022-09-01T01:13:54;16.80;99.90
11043;DHT22;5574;48.786;10.120;2022-09-01T01:16:25;16.90;99.90
11043;DHT22;5574;48.786;10.120;2022-09-01T01:18:53;16.90;99.90
11043;DHT22;5574;48.786;10.120;2022-09-01T01:21:23;16.80;99.90
11043;DHT22;5574;48.786;10.120;2022-09-01T01:24:19;16.90;99.90
11043;DHT22;5574;48.786;10.120;2022-09-01T01:26:46;16.90;99.90
11043;DHT22;5574;48.786;10.120;2022-09-01T01:29:13;16.80;99.90
11043;DHT22;5574;48.786;10.120;2022-09-01T01:31:42;16.80;99.90
11043;DHT22;5574;48.786;10.120;2022-09-01T01:34:09;16.80;99.90
11043;DHT22;5574;48.786;10.120;2022-09-01T01:36:37;16.90;99.90
11043;DHT22;5574;48.786;10.120;2022-09-01T01:39:09;16.90;99.90
11043;DHT22;5574;48.786;10.120;2022-09-01T01:41:40;17.00;99.90
11043;DHT22;5574;48.786;10.120;2022-09-01T01:44:11;17.00;99.90
11043;DHT22;5574;48.786;10.120;2022-09-01T01:46:42;17.00;99.90
11043;DHT22;5574;48.786;10.120;2022-09-01T01:49:09;16.90;99.90
11043;DHT22;5574;48.786;10.120;2022-09-01T01:51:38;16.90;99.90
11043;DHT22;5574;48.786;10.120;2022-09-01T01:54:05;16.90;99.90
11043;DHT22;5574;48.786;10.120;2022-09-01T01:56:33;16.90;99.90
11043;DHT22;5574;48.786;10.120;2022-09-01T01:59:05;16.80;99.90
11043;DHT22;5574;48.786;10.120;2022-09-01T02:01:32;16.90;99.90
11043;DHT22;5574;48.786;10.120;2022-09-01T02:03:59;16.90;99.90
11043;DHT22;5574;48.786;10.120;2022-09-01T02:06:32;16.90;99.90
11043;DHT22;5574;48.786;10.120;2022-09-01T02:09:00;16.80;99.90
11043;DHT22;5574;48.786;10.120;2022-09-01T02:11:29;16.80;99.90
11043;DHT22;5574;48.786;10.120;2022-09-01T02:13:59;16.80;99.90
11043;DHT22;5574;48.786;10.120;2022-09-01T02:16:29;16.80;99.90
11043;DHT22;5574;48.786;10.120;2022-09-01T02:18:58;16.90;99.90
11043;DHT22;5574;48.786;10.120;2022-09-01T02:21:26;16.90;99.90
11043;DHT22;5574;48.786;10.120;2022-09-01T02:23:55;16.80;99.90
11043;DHT22;5574;48.786;10.120;2022-09-01T02:26:25;16.90;99.90
11043;DHT22;5574;48.786;10.120;2022-09-01T02:28:54;16.90;99.90
11043;DHT22;5574;48.786;10.120;2022-09-01T02:31:22;16.80;99.90
11043;DHT22;5574;48.786;10.120;2022-09-01T02:33:50;16.90;99.90
11043;DHT22;5574;48.786;10.120;2022-09-01T02:36:19;16.90;99.90
11043;DHT22;5574;48.786;10.120;2022-09-01T02:38:46;16.90;99.90
11043;DHT22;5574;48.786;10.120;2022-09-01T02:41:14;16.90;99.90
11043;DHT22;5574;48.786;10.120;2022-09-01T02:43:46;16.90;99.90
11043;DHT22;5574;48.786;10.120;2022-09-01T02:46:13;16.80;99.90
11043;DHT22;5574;48.786;10.120;2022-09-01T02:48:42;16.80;99.90
11043;DHT22;5574;48.786;10.120;2022-09-01T02:51:14;16.80;99.90
11043;DHT22;5574;48.786;10.120;2022-09-01T02:53:42;16.80;99.90
11043;DHT22;5574;48.786;10.120;2022-09-01T02:56:18;16.80;99.90
11043;DHT22;5574;48.786;10.120;2022-09-01T02:58:48;16.80;99.90
11043;DHT22;5574;48.786;10.120;2022-09-01T03:01:19;16.90;99.90
11043;DHT22;5574;48.786;10.120;2022-09-01T03:03:47;16.80;99.90
11043;DHT22;5574;48.786;10.120;2022-09-01T03:06:15;16.90;99.90
11043;DHT22;5574;48.786;10.120;2022-09-01T03:08:49;16.80;99.90
11043;DHT22;5574;48.786;10.120;2022-09-01T03:11:16;16.90;99.90
11043;DHT22;5574;48.786;10.120;2022-09-01T03:13:43;16.90;99.90
11043;DHT22;5574;48.786;10.120;2022-09-01T03:16:11;16.80;99.90
11043;DHT22;5574;48.786;10.120;2022-09-01T03:18:38;16.90;99.90
11043;DHT22;5574;48.786;10.120;2022-09-01T03:21:06;16.80;99.90
11043;DHT22;5574;48.786;10.120;2022-09-01T03:23:35;16.90;99.90
11043;DHT22;5574;48.786;10.120;2022-09-01T03:26:02;16.90;99.90
11043;DHT22;5574;48.786;10.120;2022-09-01T03:28:29;16.90;99.90
11043;DHT22;5574;48.786;10.120;2022-09-01T03:30:57;17.00;99.90
11043;DHT22;5574;48.786;10.120;2022-09-01T03:33:25;16.90;99.90
11043;DHT22;5574;48.786;10.120;2022-09-01T03:35:53;16.90;99.90
11043;DHT22;5574;48.786;10.120;2022-09-01T03:38:20;16.90;99.90
11043;DHT22;5574;48.786;10.120;2022-09-01T03:40:52;16.90;99.90
11043;DHT22;5574;48.786;10.120;2022-09-01T03:43:19;16.90;99.90
11043;DHT22;5574;48.786;10.120;2022-09-01T03:45:51;16.90;99.90
11043;DHT22;5574;48.786;10.120;2022-09-01T03:48:20;16.90;99.90
11043;DHT22;5574;48.786;10.120;2022-09-01T03:50:47;16.90;99.90
11043;DHT22;5574;48.786;10.120;2022-09-01T03:53:17;16.80;99.90
11043;DHT22;5574;48.786;10.120;2022-09-01T03:55:46;16.80;99.90
11043;DHT22;5574;48.786;10.120;2022-09-01T03:58:16;16.70;99.90
11043;DHT22;5574;48.786;10.120;2022-09-01T04:00:47;16.70;99.90
11043;DHT22;5574;48.786;10.120;2022-09-01T04:03:15;16.70;99.90
11043;DHT22;5574;48.786;10.120;2022-09-01T04:05:48;16.70;99.90
11043;DHT22;5574;48.786;10.120;2022-09-01T04:08:16;16.60;99.90
11043;DHT22;5574;48.786;10.120;2022-09-01T04:10:45;16.70;99.90
11043;DHT22;5574;48.786;10.120;2022-09-01T04:13:16;16.70;99.90
11043;DHT22;5574;48.786;10.120;2022-09-01T04:15:43;16.70;99.90
11043;DHT22;5574;48.786;10.120;2022-09-01T04:18:10;16.70;99.90
11043;DHT22;5574;48.786;10.120;2022-09-01T04:20:45;16.60;99.90
11043;DHT22;5574;48.786;10.120;2022-09-01T04:23:17;16.60;99.90
11043;DHT22;5574;48.786;10.120;2022-09-01T04:25:48;16.60;99.90
11043;DHT22;5574;48.786;10.120;2022-09-01T04:28:17;16.70;99.90
11043;DHT22;5574;48.786;10.120;2022-09-01T04:30:50;16.70;99.90
11043;DHT22;5574;48.786;10.120;2022-09-01T04:33:19;16.70;99.90
11043;DHT22;5574;48.786;10.120;2022-09-01T04:35:48;16.70;99.90
11043;DHT22;5574;48.786;10.120;2022-09-01T04:38:15;16.80;99.90
11043;DHT22;5574;48.786;10.120;2022-09-01T04:40:42;16.80;99.90
11043;DHT22;5574;48.786;10.120;2022-09-01T04:43:09;16.80;99.90
11043;DHT22;5574;48.786;10.120;2022-09-01T04:45:37;16.90;99.90
11043;DHT22;5574;48.786;10.120;2022-09-01T04:48:05;16.90;99.90
11043;DHT22;5574;48.786;10.120;2022-09-01T04:50:32;16.90;99.90
11043;DHT22;5574;48.786;10.120;2022-09-01T04:53:05;16.90;99.90
11043;DHT22;5574;48.786;10.120;2022-09-01T04:55:37;17.00;99.90
11043;DHT22;5574;48.786;10.120;2022-09-01T04:58:09;16.90;99.90
11043;DHT22;5574;48.786;10.120;2022-09-01T05:00:39;16.90;99.90
11043;DHT22;5574;48.786;10.120;2022-09-01T05:03:06;16.90;99.90
11043;DHT22;5574;48.786;10.120;2022-09-01T05:05:39;16.90;99.90
11043;DHT22;5574;48.786;10.120;2022-09-01T05:08:08;16.90;99.90
11043;DHT22;5574;48.786;10.120;2022-09-01T05:10:39;16.90;99.90
11043;DHT22;5574;48.786;10.120;2022-09-01T05:13:08;17.00;99.90
11043;DHT22;5574;48.786;10.120;2022-09-01T05:15:39;17.00;99.90
11043;DHT22;5574;48.786;10.120;2022-09-01T05:18:12;17.00;99.90
11043;DHT22;5574;48.786;10.120;2022-09-01T05:20:40;16.90;99.90
11043;DHT22;5574;48.786;10.120;2022-09-01T05:23:09;16.90;99.90
11043;DHT22;5574;48.786;10.120;2022-09-01T05:25:39;16.90;99.90
11043;DHT22;5574;48.786;10.120;2022-09-01T05:28:06;17.00;99.90
11043;DHT22;5574;48.786;10.120;2022-09-01T05:30:34;17.00;99.90
11043;DHT22;5574;48.786;10.120;2022-09-01T05:33:05;17.00;99.90
11043;DHT22;5574;48.786;10.120;2022-09-01T05:35:37;17.00;99.90
11043;DHT22;5574;48.786;10.120;2022-09-01T05:38:05;17.00;99.90
11043;DHT22;5574;48.786;10.120;2022-09-01T05:40:35;17.00;99.90
11043;DHT22;5574;48.786;10.120;2022-09-01T05:43:07;17.00;99.90
11043;DHT22;5574;48.786;10.120;2022-09-01T05:45:36;17.10;99.90
11043;DHT22;5574;48.786;10.120;2022-09-01T05:48:04;17.10;99.90
11043;DHT22;5574;48.786;10.120;2022-09-01T05:50:34;17.10;99.90
11043;DHT22;5574;48.786;10.120;2022-09-01T05:53:02;17.10;99.90
11043;DHT22;5574;48.786;10.120;2022-09-01T05:55:41;17.10;99.90
11043;DHT22;5574;48.786;10.120;2022-09-01T05:58:08;17.10;99.90
11043;DHT22;5574;48.786;10.120;2022-09-01T06:00:38;17.10;99.90
11043;DHT22;5574;48.786;10.120;2022-09-01T06:03:06;17.10;99.90
11043;DHT22;5574;48.786;10.120;2022-09-01T06:05:33;17.20;99.90
11043;DHT22;5574;48.786;10.120;2022-09-01T06:08:01;17.20;99.90
11043;DHT22;5574;48.786;10.120;2022-09-01T06:10:30;17.20;99.90
11043;DHT22;5574;48.786;10.120;2022-09-01T06:12:58;17.30;99.90
11043;DHT22;5574;48.786;10.120;2022-09-01T06:15:27;17.30;99.90
11043;DHT22;5574;48.786;10.120;2022-09-01T06:17:55;17.30;99.90
11043;DHT22;5574;48.786;10.120;2022-09-01T06:20:23;17.30;99.90
11043;DHT22;5574;48.786;10.120;2022-09-01T06:22:50;17.30;99.90
11043;DHT22;5574;48.786;10.120;2022-09-01T06:25:18;17.40;99.90
11043;DHT22;5574;48.786;10.120;2022-09-01T06:27:45;17.40;99.90
11043;DHT22;5574;48.786;10.120;2022-09-01T06:30:13;17.50;99.90
11043;DHT22;5574;48.786;10.120;2022-09-01T06:32:40;17.50;99.90
11043;DHT22;5574;48.786;10.120;2022-09-01T06:35:08;17.50;99.90
11043;DHT22;5574;48.786;10.120;2022-09-01T06:37:37;17.60;99.90
11043;DHT22;5574;48.786;10.120;2022-09-01T06:40:09;17.60;99.90
11043;DHT22;5574;48.786;10.120;2022-09-01T06:42:41;17.70;99.90
11043;DHT22;5574;48.786;10.120;2022-09-01T06:45:10;17.70;99.90
11043;DHT22;5574;48.786;10.120;2022-09-01T06:47:37;17.70;99.90
11043;DHT22;5574;48.786;10.120;2022-09-01T06:50:04;17.80;99.90
11043;DHT22;5574;48.786;10.120;2022-09-01T06:52:32;17.80;99.90
11043;DHT22;5574;48.786;10.120;2022-09-01T06:55:01;17.90;99.90
11043;DHT22;5574;48.786;10.120;2022-09-01T06:57:28;17.90;99.90
11043;DHT22;5574;48.786;10.120;2022-09-01T06:59:54;17.90;99.90
11043;DHT22;5574;48.786;10.120;2022-09-01T07:02:21;17.90;99.90
11043;DHT22;5574;48.786;10.120;2022-09-01T07:04:49;17.80;99.90
11043;DHT22;5574;48.786;10.120;2022-09-01T07:07:16;17.80;99.90
11043;DHT22;5574;48.786;10.120;2022-09-01T07:09:43;17.90;99.90
11043;DHT22;5574;48.786;10.120;2022-09-01T07:12:12;17.80;99.90
11043;DHT22;5574;48.786;10.120;2022-09-01T07:14:44;17.90;99.90
11043;DHT22;5574;48.786;10.120;2022-09-01T07:17:12;17.90;99.90
11043;DHT22;5574;48.786;10.120;2022-09-01T07:19:40;18.10;99.90
11043;DHT22;5574;48.786;10.120;2022-09-01T07:22:06;18.10;99.90
11043;DHT22;5574;48.786;10.120;2022-09-01T07:24:33;18.10;99.90
11043;DHT22;5574;48.786;10.120;2022-09-01T07:27:00;18.10;99.90
11043;DHT22;5574;48.786;10.120;2022-09-01T07:29:28;18.10;99.90
11043;DHT22;5574;48.786;10.120;2022-09-01T07:31:55;18.10;99.90
11043;DHT22;5574;48.786;10.120;2022-09-01T07:34:22;18.00;99.90
11043;DHT22;5574;48.786;10.120;2022-09-01T07:36:50;18.00;99.90
11043;DHT22;5574;48.786;10.120;2022-09-01T07:39:21;17.90;99.90
11043;DHT22;5574;48.786;10.120;2022-09-01T07:41:48;17.90;99.90
11043;DHT22;5574;48.786;10.120;2022-09-01T07:44:15;18.00;99.90
11043;DHT22;5574;48.786;10.120;2022-09-01T07:46:43;18.00;99.90
11043;DHT22;5574;48.786;10.120;2022-09-01T07:49:10;18.00;99.90
11043;DHT22;5574;48.786;10.120;2022-09-01T07:51:37;18.00;99.90
11043;DHT22;5574;48.786;10.120;2022-09-01T07:54:04;18.00;99.90
11043;DHT22;5574;48.786;10.120;2022-09-01T07:56:31;18.00;99.90
11043;DHT22;5574;48.786;10.120;2022-09-01T07:58:58;18.00;99.90
11043;DHT22;5574;48.786;10.120;2022-09-01T08:01:27;18.00;99.90
11043;DHT22;5574;48.786;10.120;2022-09-01T08:03:57;17.90;99.90
11043;DHT22;5574;48.786;10.120;2022-09-01T08:06:26;17.90;99.90
11043;DHT22;5574;48.786;10.120;2022-09-01T08:08:57;18.00;99.90
11043;DHT22;5574;48.786;10.120;2022-09-01T08:11:27;18.00;99.90
11043;DHT22;5574;48.786;10.120;2022-09-01T08:13:54;18.00;99.90
11043;DHT22;5574;48.786;10.120;2022-09-01T08:16:23;18.10;99.90
11043;DHT22;5574;48.786;10.120;2022-09-01T08:18:50;18.10;99.90
11043;DHT22;5574;48.786;10.120;2022-09-01T08:21:19;18.00;99.90
11043;DHT22;5574;48.786;10.120;2022-09-01T08:23:48;18.00;99.90
11043;DHT22;5574;48.786;10.120;2022-09-01T08:26:16;17.90;99.90
11043;DHT22;5574;48.786;10.120;2022-09-01T08:28:43;17.90;99.90
11043;DHT22;5574;48.786;10.120;2022-09-01T08:31:12;18.00;99.90
11043;DHT22;5574;48.786;10.120;2022-09-01T08:33:40;17.90;99.90
11043;DHT22;5574;48.786;10.120;2022-09-01T08:36:09;17.90;99.90
11043;DHT22;5574;48.786;10.120;2022-09-01T08:38:38;17.80;99.90
11043;DHT22;5574;48.786;10.120;2022-09-01T08:41:13;17.90;99.90
11043;DHT22;5574;48.786;10.120;2022-09-01T08:43:52;17.80;99.90
11043;DHT22;5574;48.786;10.120;2022-09-01T08:46:25;17.90;99.90
11043;DHT22;5574;48.786;10.120;2022-09-01T08:48:54;18.10;99.90
11043;DHT22;5574;48.786;10.120;2022-09-01T08:51:26;18.20;99.90
11043;DHT22;5574;48.786;10.120;2022-09-01T08:54:02;18.30;99.90
11043;DHT22;5574;48.786;10.120;2022-09-01T08:56:31;18.40;99.90
11043;DHT22;5574;48.786;10.120;2022-09-01T08:59:00;18.40;99.90
11043;DHT22;5574;48.786;10.120;2022-09-01T09:01:30;18.40;99.90
11043;DHT22;5574;48.786;10.120;2022-09-01T09:04:17;18.40;99.90
11043;DHT22;5574;48.786;10.120;2022-09-01T09:06:51;18.40;99.90
11043;DHT22;5574;48.786;10.120;2022-09-01T09:09:29;18.40;99.90
11043;DHT22;5574;48.786;10.120;2022-09-01T09:12:25;18.30;99.90
11043;DHT22;5574;48.786;10.120;2022-09-01T09:15:09;18.20;99.90
11043;DHT22;5574;48.786;10.120;2022-09-01T09:17:38;18.20;99.90
11043;DHT22;5574;48.786;10.120;2022-09-01T09:20:06;18.20;99.90
11043;DHT22;5574;48.786;10.120;2022-09-01T09:22:33;18.30;99.90
11043;DHT22;5574;48.786;10.120;2022-09-01T09:25:08;18.40;99.90
11043;DHT22;5574;48.786;10.120;2022-09-01T09:27:37;18.40;99.90
11043;DHT22;5574;48.786;10.120;2022-09-01T09:30:06;18.50;99.90
11043;DHT22;5574;48.786;10.120;2022-09-01T09:32:46;18.50;99.90
11043;DHT22;5574;48.786;10.120;2022-09-01T09:35:22;18.30;99.90
11043;DHT22;5574;48.786;10.120;2022-09-01T09:37:49;18.30;99.90
11043;DHT22;5574;48.786;10.120;2022-09-01T09:40:19;18.40;99.90
11043;DHT22;5574;48.786;10.120;2022-09-01T09:43:04;18.50;99.90
11043;DHT22;5574;48.786;10.120;2022-09-01T09:45:34;18.60;99.90
11043;DHT22;5574;48.786;10.120;2022-09-01T09:48:06;18.60;99.90
11043;DHT22;5574;48.786;10.120;2022-09-01T09:50:35;18.60;99.90
11043;DHT22;5574;48.786;10.120;2022-09-01T09:53:12;18.60;99.90
11043;DHT22;5574;48.786;10.120;2022-09-01T09:55:53;18.50;99.90
11043;DHT22;5574;48.786;10.120;2022-09-01T09:58:22;18.40;99.90
11043;DHT22;5574;48.786;10.120;2022-09-01T10:01:06;18.20;99.90
11043;DHT22;5574;48.786;10.120;2022-09-01T10:03:35;18.20;99.90
11043;DHT22;5574;48.786;10.120;2022-09-01T10:06:02;18.10;99.90
11043;DHT22;5574;48.786;10.120;2022-09-01T10:08:38;18.10;99.90
11043;DHT22;5574;48.786;10.120;2022-09-01T10:11:23;18.10;99.90
11043;DHT22;5574;48.786;10.120;2022-09-01T10:13:51;18.10;99.90
11043;DHT22;5574;48.786;10.120;2022-09-01T10:16:24;18.10;99.90
11043;DHT22;5574;48.786;10.120;2022-09-01T10:18:52;18.10;99.90
11043;DHT22;5574;48.786;10.120;2022-09-01T10:21:29;18.20;99.90
11043;DHT22;5574;48.786;10.120;2022-09-01T10:23:57;18.00;99.90
11043;DHT22;5574;48.786;10.120;2022-09-01T10:26:30;17.90;99.90
11043;DHT22;5574;48.786;10.120;2022-09-01T10:29:04;17.80;99.90
11043;DHT22;5574;48.786;10.120;2022-09-01T10:31:32;17.70;99.90
11043;DHT22;5574;48.786;10.120;2022-09-01T10:34:01;17.70;99.90
11043;DHT22;5574;48.786;10.120;2022-09-01T10:36:29;17.60;99.90
11043;DHT22;5574;48.786;10.120;2022-09-01T10:38:56;17.60;99.90
11043;DHT22;5574;48.786;10.120;2022-09-01T10:41:44;17.60;99.90
11043;DHT22;5574;48.786;10.120;2022-09-01T10:44:19;17.70;99.90
11043;DHT22;5574;48.786;10.120;2022-09-01T10:46:46;17.70;99.90
11043;DHT22;5574;48.786;10.120;2022-09-01T10:52:03;17.70;99.90
11043;DHT22;5574;48.786;10.120;2022-09-01T10:54:49;17.70;99.90
11043;DHT22;5574;48.786;10.120;2022-09-01T10:57:35;17.90;99.90
11043;DHT22;5574;48.786;10.120;2022-09-01T11:00:42;17.90;99.90
11043;DHT22;5574;48.786;10.120;2022-09-01T11:06:31;18.10;99.90
11043;DHT22;5574;48.786;10.120;2022-09-01T11:09:02;18.20;99.90
11043;DHT22;5574;48.786;10.120;2022-09-01T11:11:38;18.30;99.90
11043;DHT22;5574;48.786;10.120;2022-09-01T11:14:18;18.30;99.90
11043;DHT22;5574;48.786;10.120;2022-09-01T11:17:11;18.40;99.90
11043;DHT22;5574;48.786;10.120;2022-09-01T11:19:40;18.40;99.90
11043;DHT22;5574;48.786;10.120;2022-09-01T11:22:24;18.50;99.90
11043;DHT22;5574;48.786;10.120;2022-09-01T11:27:58;18.60;99.90
11043;DHT22;5574;48.786;10.120;2022-09-01T11:30:39;18.70;99.90
11043;DHT22;5574;48.786;10.120;2022-09-01T11:36:06;18.80;99.90
11043;DHT22;5574;48.786;10.120;2022-09-01T11:38:45;18.90;99.90
11043;DHT22;5574;48.786;10.120;2022-09-01T11:41:20;19.00;99.90
11043;DHT22;5574;48.786;10.120;2022-09-01T11:43:49;19.10;99.90
11043;DHT22;5574;48.786;10.120;2022-09-01T11:46:21;19.20;99.90
11043;DHT22;5574;48.786;10.120;2022-09-01T11:48:50;19.30;99.90
11043;DHT22;5574;48.786;10.120;2022-09-01T11:51:17;19.30;99.90
11043;DHT22;5574;48.786;10.120;2022-09-01T11:53:46;19.40;99.90
11043;DHT22;5574;48.786;10.120;2022-09-01T11:56:16;19.50;99.90
11043;DHT22;5574;48.786;10.120;2022-09-01T11:58:43;19.50;99.90
11043;DHT22;5574;48.786;10.120;2022-09-01T12:01:13;19.50;99.90
11043;DHT22;5574;48.786;10.120;2022-09-01T12:03:42;19.50;99.90
11043;DHT22;5574;48.786;10.120;2022-09-01T12:06:11;19.50;99.90
11043;DHT22;5574;48.786;10.120;2022-09-01T12:08:51;19.60;99.90
11043;DHT22;5574;48.786;10.120;2022-09-01T12:11:21;19.60;99.90
11043;DHT22;5574;48.786;10.120;2022-09-01T12:14:00;19.70;99.90
11043;DHT22;5574;48.786;10.120;2022-09-01T12:16:28;19.80;99.90
11043;DHT22;5574;48.786;10.120;2022-09-01T12:18:58;19.90;99.90
11043;DHT22;5574;48.786;10.120;2022-09-01T12:21:27;19.80;99.90
11043;DHT22;5574;48.786;10.120;2022-09-01T12:24:09;19.70;99.90
11043;DHT22;5574;48.786;10.120;2022-09-01T12:26:38;19.80;99.90
11043;DHT22;5574;48.786;10.120;2022-09-01T12:29:05;19.70;99.90
11043;DHT22;5574;48.786;10.120;2022-09-01T12:31:33;19.80;99.90
11043;DHT22;5574;48.786;10.120;2022-09-01T12:34:01;19.90;99.90
11043;DHT22;5574;48.786;10.120;2022-09-01T12:36:31;20.00;99.90
11043;DHT22;5574;48.786;10.120;2022-09-01T12:39:20;20.00;99.90
11043;DHT22;5574;48.786;10.120;2022-09-01T12:42:01;20.20;99.90
11043;DHT22;5574;48.786;10.120;2022-09-01T12:44:44;20.60;99.90
11043;DHT22;5574;48.786;10.120;2022-09-01T12:53:56;21.10;99.90
11043;DHT22;5574;48.786;10.120;2022-09-01T12:56:47;20.70;99.50
11043;DHT22;5574;48.786;10.120;2022-09-01T12:59:20;21.00;99.40
11043;DHT22;5574;48.786;10.120;2022-09-01T13:01:48;21.20;99.50
11043;DHT22;5574;48.786;10.120;2022-09-01T13:04:25;21.10;98.90
11043;DHT22;5574;48.786;10.120;2022-09-01T13:06:54;20.90;99.10
11043;DHT22;5574;48.786;10.120;2022-09-01T13:09:22;20.70;99.20
11043;DHT22;5574;48.786;10.120;2022-09-01T13:11:48;20.60;99.30
11043;DHT22;5574;48.786;10.120;2022-09-01T13:14:15;20.40;99.20
11043;DHT22;5574;48.786;10.120;2022-09-01T13:16:43;20.50;99.90
11043;DHT22;5574;48.786;10.120;2022-09-01T13:19:10;20.40;99.00
11043;DHT22;5574;48.786;10.120;2022-09-01T13:21:37;20.70;99.50
11043;DHT22;5574;48.786;10.120;2022-09-01T13:24:05;20.80;99.40
11043;DHT22;5574;48.786;10.120;2022-09-01T13:26:34;20.80;98.50
11043;DHT22;5574;48.786;10.120;2022-09-01T13:29:01;20.60;97.70
11043;DHT22;5574;48.786;10.120;2022-09-01T13:31:28;20.50;97.70
11043;DHT22;5574;48.786;10.120;2022-09-01T13:33:56;20.50;98.90
11043;DHT22;5574;48.786;10.120;2022-09-01T13:36:23;20.50;98.80
11043;DHT22;5574;48.786;10.120;2022-09-01T13:38:50;20.50;98.50
11043;DHT22;5574;48.786;10.120;2022-09-01T13:41:16;20.50;99.40
11043;DHT22;5574;48.786;10.120;2022-09-01T13:43:45;20.50;98.80
11043;DHT22;5574;48.786;10.120;2022-09-01T13:46:12;20.40;98.80
11043;DHT22;5574;48.786;10.120;2022-09-01T13:48:39;20.40;99.90
11043;DHT22;5574;48.786;10.120;2022-09-01T13:51:06;20.50;98.70
11043;DHT22;5574;48.786;10.120;2022-09-01T13:53:34;20.50;98.10
11043;DHT22;5574;48.786;10.120;2022-09-01T13:56:01;20.50;98.70
11043;DHT22;5574;48.786;10.120;2022-09-01T13:58:28;20.50;98.60
11043;DHT22;5574;48.786;10.120;2022-09-01T14:00:56;20.30;98.70
11043;DHT22;5574;48.786;10.120;2022-09-01T14:03:24;20.20;98.50
11043;DHT22;5574;48.786;10.120;2022-09-01T14:05:51;20.30;99.30
11043;DHT22;5574;48.786;10.120;2022-09-01T14:08:19;20.40;99.90
11043;DHT22;5574;48.786;10.120;2022-09-01T14:10:48;20.50;99.50
11043;DHT22;5574;48.786;10.120;2022-09-01T14:13:17;20.40;98.90
11043;DHT22;5574;48.786;10.120;2022-09-01T14:15:44;20.50;98.50
11043;DHT22;5574;48.786;10.120;2022-09-01T14:18:14;20.80;98.20
11043;DHT22;5574;48.786;10.120;2022-09-01T14:20:43;20.90;97.50
11043;DHT22;5574;48.786;10.120;2022-09-01T14:23:12;21.10;97.20
11043;DHT22;5574;48.786;10.120;2022-09-01T14:25:42;21.20;97.80
11043;DHT22;5574;48.786;10.120;2022-09-01T14:28:09;21.40;97.00
11043;DHT22;5574;48.786;10.120;2022-09-01T14:30:39;21.60;97.00
11043;DHT22;5574;48.786;10.120;2022-09-01T14:33:07;21.60;97.10
11043;DHT22;5574;48.786;10.120;2022-09-01T14:35:38;21.60;97.10
11043;DHT22;5574;48.786;10.120;2022-09-01T14:38:06;21.60;96.40
11043;DHT22;5574;48.786;10.120;2022-09-01T14:40:33;21.60;96.00
11043;DHT22;5574;48.786;10.120;2022-09-01T14:43:01;21.70;94.80
11043;DHT22;5574;48.786;10.120;2022-09-01T14:45:29;21.80;94.30
11043;DHT22;5574;48.786;10.120;2022-09-01T14:47:57;22.00;94.00
11043;DHT22;5574;48.786;10.120;2022-09-01T14:50:26;22.20;94.00
11043;DHT22;5574;48.786;10.120;2022-09-01T14:52:55;22.20;92.20
11043;DHT22;5574;48.786;10.120;2022-09-01T14:55:24;22.10;92.70
11043;DHT22;5574;48.786;10.120;2022-09-01T14:57:53;22.10;91.30
11043;DHT22;5574;48.786;10.120;2022-09-01T15:00:21;22.20;91.50
11043;DHT22;5574;48.786;10.120;2022-09-01T15:02:49;22.20;90.90
11043;DHT22;5574;48.786;10.120;2022-09-01T15:05:16;22.20;92.10
11043;DHT22;5574;48.786;10.120;2022-09-01T15:07:42;22.30;91.50
11043;DHT22;5574;48.786;10.120;2022-09-01T15:10:13;22.30;92.00
11043;DHT22;5574;48.786;10.120;2022-09-01T15:12:41;22.20;91.40
11043;DHT22;5574;48.786;10.120;2022-09-01T15:15:08;22.10;92.20
11043;DHT22;5574;48.786;10.120;2022-09-01T15:17:35;22.10;91.90
11043;DHT22;5574;48.786;10.120;2022-09-01T15:20:04;21.80;92.30
11043;DHT22;5574;48.786;10.120;2022-09-01T15:22:45;21.80;92.70
11043;DHT22;5574;48.786;10.120;2022-09-01T15:25:13;21.70;93.50
11043;DHT22;5574;48.786;10.120;2022-09-01T15:27:40;21.70;93.20
11043;DHT22;5574;48.786;10.120;2022-09-01T15:30:08;21.70;93.10
11043;DHT22;5574;48.786;10.120;2022-09-01T15:32:40;21.70;92.70
11043;DHT22;5574;48.786;10.120;2022-09-01T15:35:07;21.70;92.40
11043;DHT22;5574;48.786;10.120;2022-09-01T15:37:34;21.60;92.70
11043;DHT22;5574;48.786;10.120;2022-09-01T15:40:01;21.40;93.10
11043;DHT22;5574;48.786;10.120;2022-09-01T15:42:29;21.30;94.20
11043;DHT22;5574;48.786;10.120;2022-09-01T15:44:56;21.20;94.30
11043;DHT22;5574;48.786;10.120;2022-09-01T15:47:22;21.10;94.60
11043;DHT22;5574;48.786;10.120;2022-09-01T15:49:49;21.00;95.30
11043;DHT22;5574;48.786;10.120;2022-09-01T15:52:15;21.00;95.10
11043;DHT22;5574;48.786;10.120;2022-09-01T15:54:43;20.90;94.90
11043;DHT22;5574;48.786;10.120;2022-09-01T15:57:09;20.90;95.50
11043;DHT22;5574;48.786;10.120;2022-09-01T15:59:37;20.90;95.30
11043;DHT22;5574;48.786;10.120;2022-09-01T16:02:06;20.90;95.50
11043;DHT22;5574;48.786;10.120;2022-09-01T16:04:33;20.90;94.90
11043;DHT22;5574;48.786;10.120;2022-09-01T16:07:01;20.80;94.70